Time;durP1;ratioP1;P1;durP2;ratioP2;P2;SDS_P1;SDS_P2;PMS_P1;PMS_P2;Temp;Humidity;BMP_temperature;BMP_pressure;BME280_temperature;BME280_humidity;BME280_pressure;Samples;Min_cycle;Max_cycle;Signal;HPM_P1;HPM_P2
2023/04/24 00:00:32;;;;;;;6.38;3.95;;;;;;;14.39;48.67;99391.28;5091600;28;20020;-79
2023/04/24 00:02:58;;;;;;;7.40;4.32;;;;;;;14.60;49.23;99435.41;5092926;28;20036;-78
2023/04/24 00:05:24;;;;;;;8.40;4.32;;;;;;;14.51;48.99;99418.06;5093196;28;20027;-78
2023/04/24 00:07:52;;;;;;;7.93;3.95;;;;;;;14.01;49.11;99348.59;5093120;28;20028;-78
2023/04/24 00:10:18;;;;;;;6.97;4.18;;;;;;;14.00;49.20;99357.56;5093174;28;20081;-78
2023/04/24 00:12:43;;;;;;;6.05;4.03;;;;;;;14.50;49.15;99432.34;5093132;28;20019;-79
2023/04/24 00:15:09;;;;;;;7.22;4.50;;;;;;;14.35;49.57;99413.13;5091610;28;20534;-76
2023/04/24 00:17:35;;;;;;;8.52;4.80;;;;;;;13.88;49.44;99336.13;5092910;28;20459;-78
2023/04/24 00:20:01;;;;;;;5.70;4.28;;;;;;;14.47;49.30;99424.81;5092579;28;20091;-78
2023/04/24 00:22:28;;;;;;;6.50;3.83;;;;;;;14.42;49.63;99412.13;5092604;28;20558;-78
2023/04/24 00:24:54;;;;;;;6.38;3.78;;;;;;;14.34;49.63;99400.88;5092920;28;20071;-78
2023/04/24 00:27:20;;;;;;;6.43;3.97;;;;;;;14.52;49.65;99425.00;5092448;28;20075;-78
2023/04/24 00:29:45;;;;;;;12.10;4.80;;;;;;;14.49;49.61;99428.06;5092891;28;20056;-78
2023/04/24 00:32:11;;;;;;;11.95;4.93;;;;;;;14.47;49.70;99422.97;5092773;28;20069;-78
2023/04/24 00:34:36;;;;;;;8.68;4.28;;;;;;;13.89;49.74;99340.41;5092613;28;20489;-78
2023/04/24 00:37:02;;;;;;;5.55;4.10;;;;;;;13.97;49.97;99358.78;5092871;28;20085;-78
2023/04/24 00:39:27;;;;;;;10.27;4.50;;;;;;;14.17;50.23;99392.50;5092599;28;20031;-78
2023/04/24 00:41:53;;;;;;;7.32;4.13;;;;;;;13.98;50.28;99371.03;5092188;28;20020;-79
2023/04/24 00:44:18;;;;;;;6.30;4.57;;;;;;;13.92;50.40;99377.16;5092590;28;20024;-78
2023/04/24 00:46:44;;;;;;;6.25;4.30;;;;;;;13.85;50.58;99360.44;5092353;28;20051;-79
2023/04/24 00:49:10;;;;;;;5.03;3.95;;;;;;;14.03;50.61;99389.00;5092121;28;20024;-79
2023/04/24 00:51:36;;;;;;;6.63;4.35;;;;;;;13.80;50.43;99356.75;5092179;28;20028;-78
2023/04/24 00:54:02;;;;;;;7.47;4.20;;;;;;;13.57;50.73;99312.84;5092029;28;20077;-78
2023/04/24 00:56:28;;;;;;;6.03;4.00;;;;;;;14.07;50.74;99406.16;5092508;28;20020;-78
2023/04/24 00:58:53;;;;;;;6.45;4.45;;;;;;;13.82;50.77;99367.97;5090929;28;20027;-78
2023/04/24 01:01:20;;;;;;;12.07;4.53;;;;;;;14.05;50.78;99413.50;5091719;28;20051;-79
2023/04/24 01:03:46;;;;;;;8.43;4.50;;;;;;;13.63;50.79;99341.22;5089775;28;20515;-78
2023/04/24 01:06:12;;;;;;;6.38;4.30;;;;;;;14.01;50.94;99404.31;5091748;28;20016;-78
2023/04/24 01:08:39;;;;;;;6.45;4.60;;;;;;;13.86;51.05;99387.78;5090934;28;20515;-78
2023/04/24 01:11:05;;;;;;;8.02;4.60;;;;;;;13.78;51.13;99369.41;5092230;28;20020;-78
2023/04/24 01:13:31;;;;;;;5.38;4.13;;;;;;;13.57;51.30;99341.22;5091803;28;20408;-78
2023/04/24 01:15:57;;;;;;;7.40;4.72;;;;;;;13.79;51.16;99376.34;5091737;28;20020;-78
2023/04/24 01:18:22;;;;;;;8.20;4.70;;;;;;;13.52;51.64;99338.34;5091756;28;20090;-79
2023/04/24 01:20:53;;;;;;;7.18;5.00;;;;;;;13.56;51.46;99351.00;5090289;28;20035;-78
2023/04/24 01:23:19;;;;;;;8.13;4.47;;;;;;;13.41;51.23;99329.16;5091655;28;20020;-78
2023/04/24 01:25:45;;;;;;;7.32;4.65;;;;;;;13.59;51.36;99358.56;5091477;28;20036;-77
2023/04/24 01:28:10;;;;;;;7.25;4.72;;;;;;;13.54;51.39;99349.56;5091712;28;20401;-78
2023/04/24 01:30:36;;;;;;;11.68;5.00;;;;;;;13.81;51.62;99395.53;5091805;28;20149;-78
2023/04/24 01:33:02;;;;;;;6.53;5.10;;;;;;;12.94;51.71;99253.13;5091659;28;20428;-79
2023/04/24 01:35:28;;;;;;;6.72;4.65;;;;;;;13.56;51.93;99363.47;5091553;28;20016;-77
2023/04/24 01:37:53;;;;;;;11.07;5.60;;;;;;;13.75;51.73;99393.69;5090104;28;20024;-78
2023/04/24 01:40:18;;;;;;;8.70;4.90;;;;;;;13.59;51.92;99381.63;5091441;28;20012;-77
2023/04/24 01:42:45;;;;;;;8.70;5.53;;;;;;;13.36;51.75;99335.03;5091272;28;20024;-78
2023/04/24 01:45:12;;;;;;;7.38;4.97;;;;;;;13.15;51.73;99324.56;5091239;28;20024;-78
2023/04/24 01:47:38;;;;;;;45.55;29.13;;;;;;;13.49;51.94;99389.97;5091424;28;20030;-77
2023/04/24 01:50:05;;;;;;;11.20;7.38;;;;;;;12.84;52.09;99319.75;5090075;28;20024;-78
2023/04/24 01:52:33;;;;;;;10.10;5.72;;;;;;;13.29;52.65;99389.06;5091328;28;20564;-78
2023/04/24 01:55:05;;;;;;;8.20;5.10;;;;;;;12.91;52.70;99322.44;5091368;28;20105;-77
2023/04/24 01:57:31;;;;;;;10.02;4.97;;;;;;;12.84;52.68;99311.81;5091356;28;20459;-77
2023/04/24 01:59:57;;;;;;;7.18;4.93;;;;;;;13.28;52.81;99380.28;5091038;28;20024;-78
2023/04/24 02:02:23;;;;;;;6.65;5.10;;;;;;;12.67;52.66;99284.03;5091068;28;20520;-78
2023/04/24 02:04:52;;;;;;;9.52;5.63;;;;;;;12.95;52.62;99327.13;5091480;28;20554;-77
2023/04/24 02:07:17;;;;;;;6.72;5.32;;;;;;;12.73;52.84;99294.66;5090067;28;20081;-78
2023/04/24 02:09:43;;;;;;;7.22;5.30;;;;;;;13.30;52.92;99390.69;5091249;28;20424;-79
2023/04/24 02:12:08;;;;;;;8.77;5.07;;;;;;;12.92;52.90;99343.44;5091533;28;20103;-77
2023/04/24 02:14:33;;;;;;;7.82;5.72;;;;;;;13.12;52.89;99370.00;5092458;28;20024;-78
2023/04/24 02:17:00;;;;;;;13.65;6.40;;;;;;;13.15;52.85;99374.09;5095267;28;20020;-78
2023/04/24 02:19:26;;;;;;;9.25;5.45;;;;;;;12.72;52.66;99300.16;5095236;28;20077;-77
2023/04/24 02:21:51;;;;;;;7.60;5.60;;;;;;;12.57;52.92;99280.91;5095071;28;20023;-78
2023/04/24 02:24:17;;;;;;;7.13;5.40;;;;;;;13.17;52.95;99367.63;5093577;28;20016;-78
2023/04/24 02:26:42;;;;;;;9.68;5.53;;;;;;;12.97;53.09;99335.72;5094635;28;20048;-79
2023/04/24 02:29:08;;;;;;;8.73;5.18;;;;;;;12.97;52.98;99340.19;5094976;28;20089;-77
2023/04/24 02:31:33;;;;;;;8.18;5.75;;;;;;;12.99;52.97;99344.28;5095065;28;20016;-78
2023/04/24 02:33:59;;;;;;;9.00;7.30;;;;;;;12.70;52.93;99304.81;5094887;28;20012;-77
2023/04/24 02:36:24;;;;;;;11.10;7.13;;;;;;;13.25;53.08;99409.84;5094819;28;20409;-78
2023/04/24 02:38:50;;;;;;;10.77;6.57;;;;;;;13.08;53.00;99373.25;5094859;28;20020;-78
2023/04/24 02:41:15;;;;;;;10.27;6.32;;;;;;;12.87;53.21;99353.00;5094675;28;20111;-78
2023/04/24 02:43:41;;;;;;;9.43;6.10;;;;;;;12.64;53.05;99332.09;5093402;28;20149;-78
2023/04/24 02:46:06;;;;;;;9.40;5.80;;;;;;;13.15;53.02;99412.03;5093340;28;20413;-78
2023/04/24 02:48:31;;;;;;;8.55;5.57;;;;;;;12.82;52.87;99385.38;5094632;28;20020;-77
2023/04/24 02:50:57;;;;;;;9.60;5.63;;;;;;;12.76;53.47;99388.00;5093261;28;20116;-77
2023/04/24 02:53:23;;;;;;;8.52;5.72;;;;;;;12.46;53.38;99342.38;5094615;28;20020;-77
2023/04/24 02:55:48;;;;;;;6.72;6.03;;;;;;;12.84;53.58;99411.69;5094545;28;20022;-77
2023/04/24 02:58:14;;;;;;;12.90;6.20;;;;;;;12.79;53.34;99404.31;5094272;28;20485;-77
2023/04/24 03:00:39;;;;;;;7.65;5.25;;;;;;;12.56;53.72;99378.06;5094331;28;20107;-78
2023/04/24 03:03:05;;;;;;;10.13;6.00;;;;;;;11.77;53.80;99263.69;5094167;28;20024;-78
2023/04/24 03:05:30;;;;;;;7.28;5.93;;;;;;;12.25;53.45;99343.25;5093052;28;20031;-78
2023/04/24 03:07:56;;;;;;;7.43;5.88;;;;;;;12.59;53.83;99390.13;5092993;28;20500;-77
2023/04/24 03:10:24;;;;;;;6.95;5.57;;;;;;;12.67;53.83;99403.22;5093198;28;20020;-77
2023/04/24 03:12:50;;;;;;;9.35;5.85;;;;;;;12.40;53.86;99362.50;5094245;28;20020;-77
2023/04/24 03:15:15;;;;;;;8.80;6.05;;;;;;;11.97;53.80;99290.34;5092541;28;20031;-77
2023/04/24 03:17:41;;;;;;;8.07;6.47;;;;;;;11.73;54.00;99268.53;5093750;28;20489;-78
2023/04/24 03:20:10;;;;;;;9.38;6.50;;;;;;;12.49;54.30;99387.00;5093697;28;20019;-77
2023/04/24 03:22:36;;;;;;;8.85;6.25;;;;;;;12.63;54.10;99396.66;5093700;28;20020;-78
2023/04/24 03:25:01;;;;;;;6.82;6.05;;;;;;;11.89;54.73;99291.31;5092805;28;20115;-78
2023/04/24 03:27:27;;;;;;;9.65;6.18;;;;;;;12.65;54.36;99399.97;5093557;28;20047;-78
2023/04/24 03:29:55;;;;;;;9.20;6.28;;;;;;;11.81;54.16;99280.03;5093844;28;20398;-79
2023/04/24 03:32:23;;;;;;;8.55;6.55;;;;;;;12.47;53.67;99391.66;5093788;28;20020;-78
2023/04/24 03:34:49;;;;;;;11.27;7.70;;;;;;;11.90;54.18;99308.00;5093748;28;20043;-78
2023/04/24 03:37:15;;;;;;;7.05;6.13;;;;;;;12.41;53.59;99404.66;5092369;28;20024;-78
2023/04/24 03:39:41;;;;;;;8.07;6.95;;;;;;;11.90;53.81;99337.91;5092427;28;20424;-77
2023/04/24 03:42:08;;;;;;;9.15;6.88;;;;;;;11.72;53.98;99338.31;5092242;28;20111;-78
2023/04/24 03:44:33;;;;;;;11.05;7.28;;;;;;;11.72;54.10;99325.09;5093857;28;20054;-78
2023/04/24 03:46:59;;;;;;;8.18;6.88;;;;;;;11.64;54.46;99317.28;5093970;28;20089;-77
2023/04/24 03:49:25;;;;;;;9.63;7.07;;;;;;;11.38;54.29;99274.75;5093868;28;20020;-78
2023/04/24 03:51:52;;;;;;;9.68;7.00;;;;;;;11.69;54.56;99316.72;5092142;28;20012;-78
2023/04/24 03:54:17;;;;;;;8.20;6.95;;;;;;;11.66;53.99;99330.31;5091946;28;20022;-78
2023/04/24 03:56:43;;;;;;;9.13;6.93;;;;;;;11.93;54.24;99366.63;5093295;28;20478;-78
2023/04/24 03:59:08;;;;;;;8.40;6.32;;;;;;;11.60;54.31;99325.81;5093381;28;20023;-78
2023/04/24 04:01:36;;;;;;;7.97;6.95;;;;;;;12.16;54.27;99405.28;5091902;28;20416;-78
2023/04/24 04:04:03;;;;;;;10.02;7.00;;;;;;;11.55;54.10;99310.50;5093001;28;20054;-79
2023/04/24 04:06:28;;;;;;;9.93;6.72;;;;;;;12.17;54.34;99417.50;5093079;28;20034;-78
2023/04/24 04:08:54;;;;;;;9.90;6.88;;;;;;;11.63;54.11;99330.72;5093135;28;20028;-78
2023/04/24 04:11:19;;;;;;;8.77;7.10;;;;;;;11.55;54.59;99322.91;5092873;28;20031;-79
2023/04/24 04:13:47;;;;;;;8.88;7.30;;;;;;;11.58;54.58;99344.50;5091542;28;20020;-77
2023/04/24 04:16:13;;;;;;;9.70;7.85;;;;;;;12.11;54.42;99424.38;5092960;28;20031;-77
2023/04/24 04:18:38;;;;;;;9.15;6.70;;;;;;;11.95;54.67;99399.00;5091743;28;20111;-76
2023/04/24 04:21:03;;;;;;;9.13;7.20;;;;;;;11.72;54.42;99356.00;5093025;28;20107;-79
2023/04/24 04:23:29;;;;;;;10.70;7.93;;;;;;;12.27;54.64;99433.88;5091444;28;20112;-78
2023/04/24 04:25:55;;;;;;;9.75;7.50;;;;;;;12.20;54.60;99427.72;5091324;28;20079;-79
2023/04/24 04:28:21;;;;;;;13.77;9.18;;;;;;;11.53;54.48;99324.91;5092743;28;20115;-79
2023/04/24 04:30:47;;;;;;;15.02;8.00;;;;;;;11.70;54.37;99352.75;5092589;28;20081;-78
2023/04/24 04:33:12;;;;;;;13.45;8.55;;;;;;;11.86;54.23;99370.19;5092463;28;20020;-79
2023/04/24 04:35:38;;;;;;;13.65;8.98;;;;;;;12.23;54.15;99425.50;5092550;28;20034;-78
2023/04/24 04:38:04;;;;;;;12.20;9.73;;;;;;;12.17;53.99;99413.03;5092284;28;20104;-79
2023/04/24 04:40:30;;;;;;;14.13;9.48;;;;;;;11.89;54.52;99353.94;5091052;28;20124;-78
2023/04/24 04:42:55;;;;;;;12.57;9.32;;;;;;;12.37;54.52;99421.94;5092217;28;20552;-78
2023/04/24 04:45:21;;;;;;;15.85;10.00;;;;;;;12.49;53.87;99438.13;5092289;28;20040;-78
2023/04/24 04:47:47;;;;;;;12.02;9.68;;;;;;;12.40;54.30;99420.75;5092288;28;20088;-79
2023/04/24 04:50:13;;;;;;;11.38;9.50;;;;;;;12.52;54.19;99445.69;5092159;28;20412;-78
2023/04/24 04:52:38;;;;;;;11.77;9.50;;;;;;;12.34;54.58;99405.63;5092282;28;20022;-78
2023/04/24 04:55:05;;;;;;;13.18;9.65;;;;;;;12.06;53.99;99358.81;5091933;28;20024;-78
2023/04/24 04:57:30;;;;;;;16.88;9.52;;;;;;;12.40;54.02;99415.44;5091943;28;20031;-78
2023/04/24 04:59:55;;;;;;;13.35;9.52;;;;;;;12.05;54.45;99340.47;5091743;28;20032;-78
2023/04/24 05:02:21;;;;;;;11.52;9.38;;;;;;;12.63;54.20;99437.22;5091781;28;20500;-79
2023/04/24 05:04:46;;;;;;;11.38;9.40;;;;;;;12.62;54.31;99427.63;5092036;28;20107;-78
2023/04/24 05:07:12;;;;;;;12.05;10.00;;;;;;;12.70;54.17;99443.41;5091903;28;20024;-78
2023/04/24 05:09:37;;;;;;;16.23;10.02;;;;;;;12.27;54.02;99371.16;5091855;28;20027;-78
2023/04/24 05:12:03;;;;;;;13.38;9.20;;;;;;;12.36;54.15;99371.84;5091806;28;20024;-78
2023/04/24 05:14:29;;;;;;;14.90;10.05;;;;;;;12.40;54.45;99367.78;5091773;28;20099;-78
2023/04/24 05:16:54;;;;;;;13.90;10.85;;;;;;;12.83;54.53;99433.88;5089493;28;20040;-78
2023/04/24 05:19:20;;;;;;;12.52;10.00;;;;;;;12.92;54.51;99446.78;5092072;28;20028;-78
2023/04/24 05:21:45;;;;;;;11.50;9.63;;;;;;;12.56;54.17;99395.78;5090314;28;20023;-78
2023/04/24 05:24:10;;;;;;;12.35;9.93;;;;;;;12.68;54.18;99405.69;5092075;28;20106;-79
2023/04/24 05:26:36;;;;;;;11.27;9.20;;;;;;;12.44;54.57;99352.34;5091507;28;20048;-78
2023/04/24 05:29:02;;;;;;;13.98;8.65;;;;;;;12.86;54.50;99418.41;5090472;28;20034;-77
2023/04/24 05:31:27;;;;;;;10.30;7.90;;;;;;;13.01;54.59;99442.13;5091331;28;20058;-78
2023/04/24 05:33:53;;;;;;;10.63;8.23;;;;;;;12.79;54.45;99401.66;5090315;28;20103;-78
2023/04/24 05:36:18;;;;;;;10.10;9.10;;;;;;;12.82;54.29;99389.84;5091134;28;20401;-78
2023/04/24 05:38:43;;;;;;;14.68;11.25;;;;;;;12.44;54.10;99316.09;5090679;28;20043;-79
2023/04/24 05:41:09;;;;;;;12.05;9.15;;;;;;;12.76;54.39;99362.31;5091266;28;20024;-78
2023/04/24 05:43:34;;;;;;;9.48;8.57;;;;;;;12.87;54.31;99363.59;5090456;28;20133;-78
2023/04/24 05:46:00;;;;;;;11.57;8.27;;;;;;;12.71;54.13;99328.47;5089057;28;20107;-78
2023/04/24 05:48:25;;;;;;;15.95;9.88;;;;;;;13.44;54.20;99436.66;5077388;28;20417;-77
2023/04/24 05:50:52;;;;;;;14.95;9.68;;;;;;;13.26;54.20;99415.97;5077961;28;20060;-78
2023/04/24 05:53:18;;;;;;;13.27;8.68;;;;;;;13.23;53.85;99405.75;5097053;28;20503;-78
2023/04/24 05:55:43;;;;;;;14.77;8.75;;;;;;;13.64;53.73;99458.78;5096861;28;20032;-79
2023/04/24 05:58:09;;;;;;;10.02;8.27;;;;;;;13.38;53.53;99418.88;5097605;28;20043;-78
2023/04/24 06:00:35;;;;;;;9.88;7.75;;;;;;;13.74;53.41;99466.34;5095898;28;20088;-78
2023/04/24 06:03:00;;;;;;;10.23;7.13;;;;;;;13.79;52.96;99462.06;5097219;28;20668;-78
2023/04/24 06:05:26;;;;;;;11.05;8.75;;;;;;;13.30;53.05;99380.91;5095594;28;20027;-78
2023/04/24 06:07:51;;;;;;;13.77;8.95;;;;;;;13.68;52.71;99431.63;5095613;28;20090;-78
2023/04/24 06:10:17;;;;;;;11.98;9.18;;;;;;;13.58;52.77;99380.00;5096237;28;20032;-78
2023/04/24 06:12:42;;;;;;;13.38;11.00;;;;;;;13.93;52.74;99420.44;5095739;28;20032;-78
2023/04/24 06:15:08;;;;;;;15.80;10.35;;;;;;;13.93;52.43;99409.84;5095345;28;20389;-77
2023/04/24 06:17:34;;;;;;;13.80;9.60;;;;;;;14.11;52.53;99418.00;5094615;28;20051;-78
2023/04/24 06:19:59;;;;;;;14.05;9.48;;;;;;;13.39;52.40;99290.59;5096958;28;20024;-78
2023/04/24 06:22:25;;;;;;;12.55;10.27;;;;;;;13.85;52.49;99359.59;5097189;28;20493;-78
2023/04/24 06:24:50;;;;;;;14.77;9.77;;;;;;;13.99;52.01;99377.16;5095121;28;20519;-78
2023/04/24 06:27:15;;;;;;;9.20;8.20;;;;;;;14.25;52.17;99382.50;5096499;28;20116;-78
2023/04/24 06:29:41;;;;;;;12.88;9.73;;;;;;;13.97;51.90;99337.56;5096662;28;20432;-78
2023/04/24 06:32:06;;;;;;;16.42;12.75;;;;;;;14.47;52.05;99403.56;5095071;28;20118;-76
2023/04/24 06:34:33;;;;;;;14.93;10.98;;;;;;;14.30;52.07;99374.72;5095790;28;20107;-78
2023/04/24 06:37:00;;;;;;;14.80;10.23;;;;;;;14.57;51.75;99366.75;5094982;28;20052;-78
2023/04/24 06:39:25;;;;;;;14.45;9.65;;;;;;;15.02;51.61;99431.47;5094085;28;20032;-78
2023/04/24 06:41:51;;;;;;;10.63;8.50;;;;;;;15.14;50.84;99419.16;5090585;28;20047;-78
2023/04/24 06:44:16;;;;;;;12.15;10.18;;;;;;;15.13;50.50;99406.88;5083662;28;20484;-78
2023/04/24 06:46:42;;;;;;;12.90;8.75;;;;;;;15.14;50.47;99378.44;5092122;28;20754;-78
2023/04/24 06:49:07;;;;;;;11.15;8.73;;;;;;;15.57;50.56;99408.72;5094370;28;20056;-78
2023/04/24 06:51:32;;;;;;;13.52;8.73;;;;;;;15.69;50.23;99402.75;5096175;28;20032;-76
2023/04/24 06:53:58;;;;;;;14.00;8.63;;;;;;;15.43;50.35;99326.50;5086657;28;20415;-76
2023/04/24 06:56:25;;;;;;;11.95;8.10;;;;;;;15.64;49.76;99339.53;5095244;28;20028;-80
2023/04/24 06:58:51;;;;;;;12.73;8.90;;;;;;;16.14;49.57;99404.28;5082431;28;20416;-77
2023/04/24 07:01:16;;;;;;;9.30;7.40;;;;;;;16.07;49.50;99395.53;5072877;28;20062;-78
2023/04/24 07:03:41;;;;;;;16.05;8.45;;;;;;;15.91;49.67;99379.25;5091324;28;20099;-78
2023/04/24 07:06:07;;;;;;;8.93;6.53;;;;;;;15.65;49.77;99351.81;5094146;28;20115;-76
2023/04/24 07:08:33;;;;;;;9.80;6.90;;;;;;;16.16;49.95;99409.38;5088762;28;20028;-75
2023/04/24 07:10:59;;;;;;;9.15;7.55;;;;;;;16.27;50.00;99414.00;5091236;28;20119;-75
2023/04/24 07:13:25;;;;;;;7.97;7.00;;;;;;;16.36;50.15;99406.56;5092590;28;20408;-75
2023/04/24 07:15:52;;;;;;;12.82;9.65;;;;;;;16.39;50.00;99406.13;5092638;28;20035;-77
2023/04/24 07:18:19;;;;;;;13.07;9.57;;;;;;;16.48;49.85;99410.16;5092131;28;20493;-76
2023/04/24 07:20:44;;;;;;;9.30;6.65;;;;;;;16.06;49.80;99327.31;5092661;28;20024;-76
2023/04/24 07:23:10;;;;;;;8.40;6.50;;;;;;;16.37;49.49;99371.72;5093763;28;20481;-75
2023/04/24 07:25:35;;;;;;;11.07;6.68;;;;;;;16.48;49.08;99376.31;5093294;28;20171;-74
2023/04/24 07:28:01;;;;;;;8.52;6.50;;;;;;;16.27;48.75;99330.59;5093449;28;20059;-75
2023/04/24 07:30:28;;;;;;;7.70;5.95;;;;;;;16.38;48.39;99313.91;5093277;28;20055;-75
2023/04/24 07:32:54;;;;;;;7.57;6.75;;;;;;;16.55;47.91;99319.47;5073091;28;20021;-77
2023/04/24 07:35:19;;;;;;;7.78;6.03;;;;;;;17.12;47.47;99398.25;5073179;28;20032;-76
2023/04/24 07:37:45;;;;;;;8.60;5.88;;;;;;;17.17;47.37;99401.06;5088608;28;20020;-76
2023/04/24 07:40:14;;;;;;;7.88;6.38;;;;;;;17.03;47.37;99392.38;5093110;28;20020;-77
2023/04/24 07:42:39;;;;;;;7.47;6.10;;;;;;;17.02;47.88;99401.41;5089959;28;20028;-76
2023/04/24 07:45:05;;;;;;;7.55;5.82;;;;;;;16.74;47.66;99367.25;5092407;28;20027;-76
2023/04/24 07:47:32;;;;;;;7.40;5.90;;;;;;;16.69;47.91;99339.63;5092925;28;20081;-76
2023/04/24 07:49:57;;;;;;;11.35;6.60;;;;;;;16.08;47.76;99293.28;5091035;28;20085;-76
2023/04/24 07:52:23;;;;;;;8.18;6.53;;;;;;;16.81;47.79;99357.34;5093109;28;20028;-76
2023/04/24 07:54:49;;;;;;;8.30;6.35;;;;;;;17.14;47.85;99396.16;5092688;28;20031;-76
2023/04/24 07:57:15;;;;;;;6.88;6.22;;;;;;;16.93;47.38;99354.72;5093220;28;20055;-76
2023/04/24 07:59:41;;;;;;;9.32;7.15;;;;;;;17.50;47.17;99413.97;5092954;28;20035;-78
2023/04/24 08:02:06;;;;;;;10.35;6.88;;;;;;;17.17;46.64;99333.53;5092002;28;20056;-76
2023/04/24 08:04:32;;;;;;;9.98;7.75;;;;;;;17.41;45.99;99356.59;5091639;28;20409;-76
2023/04/24 08:06:58;;;;;;;7.10;6.07;;;;;;;17.38;45.82;99333.03;5092540;28;20058;-76
2023/04/24 08:09:23;;;;;;;7.78;6.10;;;;;;;17.95;45.38;99392.22;5092358;28;20078;-77
2023/04/24 08:11:49;;;;;;;12.80;7.35;;;;;;;18.12;44.98;99395.03;5092207;28;20028;-76
2023/04/24 08:14:15;;;;;;;7.63;6.88;;;;;;;18.03;45.06;99365.97;5092227;28;20136;-75
2023/04/24 08:16:41;;;;;;;7.85;7.07;;;;;;;17.88;44.77;99324.72;5090653;28;20028;-77
2023/04/24 08:19:06;;;;;;;8.68;6.25;;;;;;;18.31;44.56;99391.22;5092097;28;20020;-75
2023/04/24 08:21:32;;;;;;;9.55;6.95;;;;;;;18.20;44.11;99381.31;5086536;28;20076;-75
2023/04/24 08:23:57;;;;;;;13.25;11.90;;;;;;;18.18;44.15;99386.91;5091188;28;20024;-78
2023/04/24 08:26:23;;;;;;;11.98;10.77;;;;;;;18.21;44.32;99382.94;5089285;28;20047;-75
2023/04/24 08:28:48;;;;;;;11.95;10.02;;;;;;;18.29;43.92;99385.28;5097478;28;20126;-77
2023/04/24 08:31:14;;;;;;;9.65;6.95;;;;;;;18.29;43.76;99377.25;5100816;28;20024;-76
2023/04/24 08:33:40;;;;;;;9.02;7.22;;;;;;;18.31;43.81;99380.53;5102576;28;20027;-77
2023/04/24 08:36:06;;;;;;;8.65;6.22;;;;;;;17.94;43.56;99332.63;5111764;28;20072;-77
2023/04/24 08:38:32;;;;;;;6.70;6.10;;;;;;;18.18;43.97;99383.41;5097115;28;20056;-76
2023/04/24 08:41:00;;;;;;;6.90;5.32;;;;;;;17.99;44.26;99323.94;5098235;28;20543;-77
2023/04/24 08:43:26;;;;;;;7.18;5.55;;;;;;;18.59;43.86;99374.50;5092549;28;20504;-76
2023/04/24 08:45:52;;;;;;;8.20;6.25;;;;;;;18.85;43.70;99368.66;5101166;28;20504;-78
2023/04/24 08:48:18;;;;;;;7.28;5.55;;;;;;;18.65;43.55;99304.88;5088611;28;20035;-75
2023/04/24 08:50:44;;;;;;;9.20;5.78;;;;;;;19.33;43.27;99362.16;5094206;28;20032;-74
2023/04/24 08:53:11;;;;;;;5.75;5.20;;;;;;;19.18;42.87;99282.34;5091304;28;20023;-75
2023/04/24 08:55:37;;;;;;;5.60;5.00;;;;;;;19.67;42.42;99312.97;5104587;28;20023;-76
2023/04/24 08:58:03;;;;;;;5.50;5.00;;;;;;;20.03;41.96;99334.97;5084381;28;20032;-77
2023/04/24 09:00:29;;;;;;;5.65;5.10;;;;;;;20.14;41.70;99322.56;5085985;28;20023;-77
2023/04/24 09:02:56;;;;;;;6.43;5.10;;;;;;;19.91;41.21;99254.69;5090345;28;20663;-76
2023/04/24 09:05:23;;;;;;;8.80;7.90;;;;;;;20.80;40.58;99347.63;5092993;28;20044;-75
2023/04/24 09:07:56;;;;;;;7.97;5.95;;;;;;;20.73;40.37;99304.91;5090590;28;20500;-78
2023/04/24 09:10:24;;;;;;;8.32;7.47;;;;;;;21.16;39.90;99325.53;5086909;28;20028;-76
2023/04/24 09:12:54;;;;;;;7.45;6.47;;;;;;;21.08;39.53;99279.53;5088730;28;20020;-76
2023/04/24 09:15:20;;;;;;;10.40;5.93;;;;;;;21.07;39.32;99253.75;5091126;28;20024;-78
2023/04/24 09:17:46;;;;;;;7.50;6.10;;;;;;;21.71;39.32;99337.94;5090592;28;20042;-76
2023/04/24 09:20:11;;;;;;;6.82;5.10;;;;;;;21.53;38.73;99314.13;5086426;28;20036;-76
2023/04/24 09:22:37;;;;;;;6.70;5.28;;;;;;;21.69;38.54;99317.78;5095661;28;20035;-77
2023/04/24 09:25:05;;;;;;;7.38;6.68;;;;;;;21.83;38.54;99321.66;5090899;28;20040;-76
2023/04/24 09:27:31;;;;;;;7.93;5.50;;;;;;;21.64;37.78;99277.44;5098234;28;20052;-76
2023/04/24 09:29:57;;;;;;;7.00;4.93;;;;;;;22.15;37.47;99333.22;5109734;28;20023;-76
2023/04/24 09:32:25;;;;;;;7.47;5.47;;;;;;;22.36;37.15;99326.13;5105533;28;20024;-76
2023/04/24 09:35:15;;;;;;;6.03;5.43;;;;;;;22.33;36.38;99270.16;5100022;28;20039;-75
2023/04/24 09:37:46;;;;;;;6.75;5.20;;;;;;;22.69;36.36;99307.97;5099890;28;20024;-77
2023/04/24 09:40:18;;;;;;;9.52;5.57;;;;;;;22.94;36.27;99318.06;5089320;28;20036;-76
2023/04/24 09:42:57;;;;;;;9.43;6.30;;;;;;;23.20;36.28;99325.16;5098929;28;20032;-77
2023/04/24 09:45:37;;;;;;;9.55;6.78;;;;;;;23.41;36.18;99320.63;5088345;28;20115;-74
2023/04/24 09:48:03;;;;;;;7.72;6.85;;;;;;;23.17;35.71;99236.81;5094302;28;20160;-73
2023/04/24 09:50:31;;;;;;;15.15;10.75;;;;;;;23.61;35.58;99295.59;5100611;28;20088;-77
2023/04/24 09:52:59;;;;;;;35.20;29.40;;;;;;;23.64;35.69;99305.84;5091742;28;20047;-76
2023/04/24 09:55:25;;;;;;;8.75;7.13;;;;;;;23.72;35.18;99302.63;5081154;28;20036;-73
2023/04/24 09:57:56;;;;;;;5.95;4.70;;;;;;;23.58;35.27;99261.13;5090644;28;20028;-76
2023/04/24 10:00:28;;;;;;;13.48;11.80;;;;;;;23.80;35.82;99291.31;5095183;28;20103;-75
2023/04/24 10:03:05;;;;;;;7.13;5.60;;;;;;;23.92;35.65;99291.03;5109295;28;20409;-74
2023/04/24 10:05:35;;;;;;;5.80;4.47;;;;;;;23.93;35.45;99244.13;5089392;28;20056;-75
2023/04/24 10:08:09;;;;;;;7.28;5.90;;;;;;;24.32;34.76;99274.00;5088071;28;20051;-77
2023/04/24 10:10:38;;;;;;;6.43;4.07;;;;;;;24.55;34.98;99273.41;5089006;28;20102;-76
2023/04/24 10:13:04;;;;;;;7.35;4.95;;;;;;;24.45;34.49;99251.00;5092712;28;20111;-76
2023/04/24 10:15:30;;;;;;;5.43;4.30;;;;;;;24.43;34.59;99232.41;5088417;28;20112;-74
2023/04/24 10:17:58;;;;;;;5.85;4.47;;;;;;;24.16;34.71;99202.25;5088562;28;20111;-77
2023/04/24 10:20:26;;;;;;;6.88;5.90;;;;;;;24.68;34.63;99263.91;5089089;28;20035;-76
2023/04/24 10:22:53;;;;;;;8.05;5.28;;;;;;;24.56;34.60;99231.81;5088168;28;20195;-77
2023/04/24 10:25:30;;;;;;;6.88;4.75;;;;;;;24.75;34.57;99248.22;5090152;28;20028;-78
2023/04/24 10:28:02;;;;;;;5.55;5.00;;;;;;;24.35;34.02;99177.13;5084608;28;20033;-76
2023/04/24 10:30:38;;;;;;;5.82;4.35;;;;;;;24.44;34.25;99174.63;5080642;28;20031;-76
2023/04/24 10:33:06;;;;;;;11.45;8.82;;;;;;;24.81;34.43;99211.19;5089907;28;20119;-76
2023/04/24 10:35:35;;;;;;;13.98;10.43;;;;;;;25.01;34.30;99240.78;5093041;28;20038;-76
2023/04/24 10:38:11;;;;;;;9.75;8.20;;;;;;;24.55;34.30;99175.41;5094199;28;20032;-77
2023/04/24 10:40:36;;;;;;;10.68;7.35;;;;;;;24.65;34.40;99191.56;5094518;28;20056;-74
2023/04/24 10:43:08;;;;;;;6.80;5.75;;;;;;;24.99;34.77;99237.56;5093805;28;20165;-75
2023/04/24 10:45:33;;;;;;;;;;;;;;;25.00;34.47;99239.97;5092700;28;20458;-76
2023/04/24 10:48:10;;;;;;;9.23;6.72;;;;;;;25.20;33.99;99241.75;5085549;28;19911;-76
2023/04/24 10:50:43;;;;;;;6.85;4.90;;;;;;;25.58;33.72;99237.41;5086851;28;20024;-74
2023/04/24 10:53:14;;;;;;;7.90;5.40;;;;;;;25.45;32.73;99196.72;5092607;28;20016;-75
2023/04/24 10:55:50;;;;;;;7.22;4.40;;;;;;;25.41;32.34;99157.81;5091971;28;20028;-74
2023/04/24 10:58:16;;;;;;;5.07;4.53;;;;;;;25.75;32.55;99190.25;5096894;28;20028;-74
2023/04/24 11:00:46;;;;;;;7.95;5.10;;;;;;;26.14;32.27;99228.78;5089090;28;20027;-75
2023/04/24 11:03:27;;;;;;;5.85;3.80;;;;;;;26.41;32.24;99225.53;5093926;28;20040;-73
2023/04/24 11:06:08;;;;;;;5.75;4.35;;;;;;;26.21;31.97;99177.84;5097703;27;20027;-75
2023/04/24 11:08:44;;;;;;;4.17;3.67;;;;;;;26.64;31.96;99220.38;5074751;28;20106;-76
2023/04/24 11:11:15;;;;;;;9.02;6.10;;;;;;;26.12;31.85;99152.50;5087093;28;20451;-76
2023/04/24 11:13:55;;;;;;;4.57;3.78;;;;;;;26.43;31.84;99217.94;5087235;28;20029;-77
2023/04/24 11:16:30;;;;;;;6.13;5.28;;;;;;;26.17;32.16;99138.91;5089362;28;20062;-76
2023/04/24 11:19:04;;;;;;;10.70;8.60;;;;;;;26.94;31.89;99211.84;5079833;28;20032;-76
2023/04/24 11:21:41;;;;;;;5.93;5.10;;;;;;;27.06;31.13;99204.09;5086503;28;20033;-76
2023/04/24 11:24:26;;;;;;;5.75;4.93;;;;;;;27.23;30.63;99201.66;5088993;28;20479;-76
2023/04/24 11:26:54;;;;;;;12.95;9.43;;;;;;;26.81;31.46;99169.22;5096680;28;20043;-77